Time;durP1;ratioP1;P1;durP2;ratioP2;P2;SDS_P1;SDS_P2;PMS_P1;PMS_P2;Temp;Humidity;BMP_temperature;BMP_pressure;BME280_temperature;BME280_humidity;BME280_pressure;Samples;Min_cycle;Max_cycle;Signal;HPM_P1;HPM_P2
2023/04/16 00:01:05;;;;;;;27.70;21.60;;;;;;;8.81;80.46;100983.63;108027;1254;73186;-86
2023/04/16 00:03:34;;;;;;;24.40;21.00;;;;;;;8.82;80.50;100984.94;108074;1257;61835;-85
2023/04/16 00:06:03;;;;;;;29.00;22.50;;;;;;;8.83;80.49;100983.52;107909;1255;60334;-85
2023/04/16 00:08:32;;;;;;;25.70;20.60;;;;;;;8.83;80.35;100985.17;107981;1257;75965;-85
2023/04/16 00:11:00;;;;;;;24.60;20.50;;;;;;;8.84;80.37;100984.23;108018;1257;72869;-86
2023/04/16 00:13:35;;;;;;;24.40;19.70;;;;;;;8.83;80.37;100985.98;108149;1258;74055;-86
2023/04/16 00:16:04;;;;;;;26.40;20.90;;;;;;;8.84;80.30;100990.46;109038;1256;60494;-82
2023/04/16 00:18:32;;;;;;;23.40;20.20;;;;;;;8.86;80.36;100994.23;109469;1254;60202;-80
2023/04/16 00:21:08;;;;;;;26.20;21.80;;;;;;;8.88;80.28;100994.19;108950;1257;74807;-87
2023/04/16 00:23:37;;;;;;;23.80;19.60;;;;;;;8.91;80.34;100992.90;108077;1257;71455;-87
2023/04/16 00:26:05;;;;;;;24.40;20.40;;;;;;;8.94;80.27;100997.39;107919;1257;72694;-85
2023/04/16 00:28:35;;;;;;;22.50;19.70;;;;;;;8.95;80.29;100995.60;107979;1257;61036;-86
2023/04/16 00:31:04;;;;;;;26.60;20.50;;;;;;;8.94;80.19;100991.73;107986;1254;61112;-86
2023/04/16 00:33:32;;;;;;;22.90;19.20;;;;;;;8.93;80.20;100994.83;108053;1254;73446;-87
2023/04/16 00:36:03;;;;;;;23.70;19.50;;;;;;;8.95;80.19;100996.67;108091;1254;71860;-87
2023/04/16 00:38:31;;;;;;;24.50;20.50;;;;;;;8.97;80.16;100997.92;108069;1257;73569;-86
2023/04/16 00:41:02;;;;;;;23.60;21.10;;;;;;;8.95;80.15;100999.35;108031;1254;63130;-85
2023/04/16 00:43:30;;;;;;;24.10;19.80;;;;;;;8.95;80.18;100999.88;107896;1254;61347;-87
2023/04/16 00:45:59;;;;;;;24.50;20.70;;;;;;;8.95;80.13;101001.33;107973;1254;75825;-87
2023/04/16 00:48:31;;;;;;;24.20;20.90;;;;;;;8.96;80.12;100998.55;108054;1254;74132;-85
2023/04/16 00:51:00;;;;;;;25.20;20.70;;;;;;;8.97;80.10;101002.46;107924;1260;72730;-85
2023/04/16 00:53:29;;;;;;;21.30;18.90;;;;;;;9.01;80.15;101002.06;108089;1254;62109;-85
2023/04/16 00:56:02;;;;;;;26.50;19.90;;;;;;;9.03;80.05;101003.07;107729;1256;61154;-86
2023/04/16 00:58:31;;;;;;;24.30;21.00;;;;;;;9.02;80.09;101000.92;107996;1254;74753;-84
2023/04/16 01:01:00;;;;;;;23.70;20.60;;;;;;;9.02;80.10;100999.79;108146;1254;71848;-85
2023/04/16 01:03:38;;;;;;;20.50;18.20;;;;;;;9.01;80.04;100999.34;108084;1256;73972;-85
2023/04/16 01:06:07;;;;;;;26.30;20.70;;;;;;;9.01;79.99;100995.94;108001;1256;62739;-86
2023/04/16 01:08:36;;;;;;;21.50;18.50;;;;;;;9.00;79.95;100999.06;108039;1254;61011;-85
2023/04/16 01:11:04;;;;;;;24.50;19.80;;;;;;;9.02;80.00;100996.91;108128;1255;72671;-86
2023/04/16 01:13:37;;;;;;;24.70;20.20;;;;;;;9.01;79.97;101000.25;108101;1254;74548;-85
2023/04/16 01:16:07;;;;;;;25.90;21.10;;;;;;;9.00;80.01;101002.15;108196;1254;73415;-86
2023/04/16 01:18:36;;;;;;;23.40;18.80;;;;;;;8.99;80.00;101003.36;108174;1255;61144;-86
2023/04/16 01:21:05;;;;;;;23.50;20.00;;;;;;;8.99;80.07;101002.70;108195;1254;61260;-89
2023/04/16 01:23:36;;;;;;;23.40;20.60;;;;;;;8.98;80.08;100999.23;108143;1255;75666;-87
2023/04/16 01:26:11;;;;;;;23.60;20.60;;;;;;;8.97;80.04;101001.35;108113;1254;72579;-85
2023/04/16 01:28:42;;;;;;;23.80;20.00;;;;;;;8.96;80.20;101000.11;108124;1254;73441;-85
2023/04/16 01:31:10;;;;;;;23.50;20.20;;;;;;;8.97;80.21;100996.60;108123;1254;63082;-86
2023/04/16 01:33:58;;;;;;;23.40;19.10;;;;;;;8.96;80.25;100998.29;108124;1254;60272;-85
2023/04/16 01:36:26;;;;;;;23.60;19.20;;;;;;;8.96;80.21;100999.25;108046;1254;75408;-85
2023/04/16 01:38:55;;;;;;;23.60;19.70;;;;;;;8.96;80.29;101000.42;108046;1254;72418;-86
2023/04/16 01:41:24;;;;;;;23.70;20.10;;;;;;;8.98;80.38;101000.66;108128;1254;72641;-87
2023/04/16 01:43:52;;;;;;;25.30;19.80;;;;;;;8.98;80.30;100996.33;108263;1260;61809;-87
2023/04/16 01:46:25;;;;;;;23.90;19.90;;;;;;;8.97;80.32;100998.83;109201;1254;59278;-82
2023/04/16 01:48:54;;;;;;;25.30;19.00;;;;;;;8.97;80.39;101002.30;108927;1254;73350;-87
2023/04/16 01:51:23;;;;;;;22.60;19.20;;;;;;;8.97;80.40;101001.71;108693;1254;72001;-86
2023/04/16 01:53:51;;;;;;;22.30;19.30;;;;;;;8.98;80.44;101002.10;107818;1256;71722;-86
2023/04/16 01:56:20;;;;;;;23.60;19.80;;;;;;;8.98;80.49;101000.61;107925;1256;61987;-86
2023/04/16 01:58:49;;;;;;;22.90;19.90;;;;;;;8.98;80.46;101001.50;107793;1257;61083;-85
2023/04/16 02:01:19;;;;;;;22.70;18.40;;;;;;;8.99;80.55;101003.29;108002;1257;74316;-87
2023/04/16 02:03:53;;;;;;;20.70;18.40;;;;;;;9.01;80.59;101003.39;107708;1257;70495;-86
2023/04/16 02:06:22;;;;;;;22.80;18.50;;;;;;;9.05;80.54;101009.92;107807;1257;70583;-85
2023/04/16 02:08:50;;;;;;;24.00;18.50;;;;;;;9.09;80.55;101009.85;107970;1256;61864;-87
2023/04/16 02:11:20;;;;;;;22.80;18.40;;;;;;;9.11;80.54;101010.05;108023;1256;61221;-85
2023/04/16 02:13:49;;;;;;;21.00;17.70;;;;;;;9.15;80.55;101008.95;103940;1259;5398411;-86
2023/04/16 02:16:18;;;;;;;20.10;16.80;;;;;;;9.18;80.50;101008.86;108123;1254;61252;-87
2023/04/16 02:18:51;;;;;;;21.40;17.20;;;;;;;9.20;80.51;101011.88;108032;1254;70939;-85
2023/04/16 02:21:21;;;;;;;22.40;17.50;;;;;;;9.20;80.39;101016.67;108125;1255;62743;-88
2023/04/16 02:24:07;;;;;;;20.30;15.40;;;;;;;9.18;80.33;101018.94;108023;1256;61271;-86
2023/04/16 02:26:55;;;;;;;19.40;17.30;;;;;;;9.20;80.31;101024.34;107828;1257;74840;-88
2023/04/16 02:29:33;;;;;;;19.90;16.80;;;;;;;9.22;80.32;101023.80;108084;1257;73137;-86
2023/04/16 02:32:18;;;;;;;18.40;15.60;;;;;;;9.25;80.29;101021.59;107823;1257;72816;-86
2023/04/16 02:34:51;;;;;;;20.40;17.10;;;;;;;9.26;80.34;101026.82;107790;1256;62022;-87
2023/04/16 02:37:20;;;;;;;17.90;15.90;;;;;;;9.26;80.17;101023.73;107928;1254;61235;-87
2023/04/16 02:39:51;;;;;;;20.10;15.90;;;;;;;9.27;80.27;101026.20;107980;1255;72890;-86
2023/04/16 02:42:22;;;;;;;18.40;14.80;;;;;;;9.28;80.19;101027.05;107794;1256;72994;-86
2023/04/16 02:44:58;;;;;;;18.80;16.20;;;;;;;9.28;80.13;101029.56;107878;1256;71332;-87
2023/04/16 02:47:27;;;;;;;20.70;16.10;;;;;;;9.27;80.15;101030.88;107956;1256;63219;-88
2023/04/16 02:49:58;;;;;;;19.30;15.10;;;;;;;9.26;80.09;101034.08;107809;1257;60273;-87
2023/04/16 02:52:27;;;;;;;22.50;16.50;;;;;;;9.27;80.11;101033.01;108101;1256;75102;-86
2023/04/16 02:54:55;;;;;;;19.10;15.80;;;;;;;9.28;80.23;101036.57;108132;1257;71042;-88
2023/04/16 02:57:24;;;;;;;18.60;15.80;;;;;;;9.29;80.09;101037.11;108315;1257;72487;-88
2023/04/16 02:59:53;;;;;;;18.20;14.60;;;;;;;9.31;80.22;101036.05;109050;1256;60154;-85
2023/04/16 03:02:21;;;;;;;18.70;14.90;;;;;;;9.34;80.17;101036.35;108527;1257;61090;-86
2023/04/16 03:04:51;;;;;;;15.90;13.20;;;;;;;9.36;80.08;101042.75;108519;1257;73705;-83
2023/04/16 03:07:22;;;;;;;16.80;14.10;;;;;;;9.38;79.94;101045.23;108576;1256;72610;-87
2023/04/16 03:09:50;;;;;;;19.00;14.30;;;;;;;9.38;79.87;101048.43;108194;1257;72440;-86
2023/04/16 03:12:19;;;;;;;16.00;12.50;;;;;;;9.40;79.93;101054.61;108218;1256;62285;-86
2023/04/16 03:14:51;;;;;;;18.50;13.90;;;;;;;9.41;79.86;101056.09;109049;1256;60924;-86
2023/04/16 03:17:19;;;;;;;15.00;12.30;;;;;;;9.42;79.86;101058.33;109289;1256;74524;-84
2023/04/16 03:19:49;;;;;;;16.90;12.40;;;;;;;9.44;79.86;101057.52;109185;1257;71876;-87
2023/04/16 03:22:20;;;;;;;16.30;11.40;;;;;;;9.48;79.85;101057.44;108232;1256;71957;-86
2023/04/16 03:24:49;;;;;;;15.70;12.00;;;;;;;9.48;79.75;101058.35;107942;1256;61662;-87
2023/04/16 03:27:17;;;;;;;15.30;11.90;;;;;;;9.48;79.74;101064.58;107923;1256;61449;-87
2023/04/16 03:29:45;;;;;;;18.90;13.30;;;;;;;9.49;79.69;101061.17;107943;1256;75264;-86
2023/04/16 03:32:14;;;;;;;15.80;11.80;;;;;;;9.46;79.70;101064.59;107973;1257;71257;-88
2023/04/16 03:34:42;;;;;;;13.80;11.10;;;;;;;9.44;79.70;101065.23;107983;1256;72682;-87
2023/04/16 03:37:11;;;;;;;17.40;11.70;;;;;;;9.43;79.69;101068.15;107988;1257;63342;-87
2023/04/16 03:39:39;;;;;;;17.50;11.50;;;;;;;9.44;79.70;101069.59;107873;1257;61189;-87
2023/04/16 03:42:10;;;;;;;17.10;11.70;;;;;;;9.45;79.75;101065.63;107879;1257;73642;-87
2023/04/16 03:44:39;;;;;;;14.70;11.10;;;;;;;9.45;79.78;101070.23;108089;1259;72538;-88
2023/04/16 03:47:08;;;;;;;15.20;11.40;;;;;;;9.45;79.78;101068.09;108126;1256;73647;-87
2023/04/16 03:49:37;;;;;;;14.80;11.60;;;;;;;9.43;79.73;101069.21;108050;1256;63008;-88
2023/04/16 03:52:10;;;;;;;14.50;10.80;;;;;;;9.43;79.98;101075.72;108092;1256;61132;-86
2023/04/16 03:54:40;;;;;;;15.00;11.00;;;;;;;9.47;79.99;101080.11;107828;1257;72343;-88
2023/04/16 03:57:19;;;;;;;15.50;10.90;;;;;;;9.48;79.97;101082.77;107931;1257;72820;-86
2023/04/16 03:59:48;;;;;;;14.50;11.00;;;;;;;9.46;79.92;101081.97;108037;1256;73721;-87
2023/04/16 04:02:17;;;;;;;16.10;11.10;;;;;;;9.46;79.98;101086.02;107888;1256;61917;-87
2023/04/16 04:04:47;;;;;;;15.80;10.50;;;;;;;9.48;80.05;101084.89;108088;1259;61135;-87
2023/04/16 04:07:16;;;;;;;15.70;11.10;;;;;;;9.47;80.05;101087.05;107887;1257;75888;-89
2023/04/16 04:09:45;;;;;;;14.00;10.70;;;;;;;9.45;80.08;101084.83;108129;1255;73864;-89
2023/04/16 04:12:13;;;;;;;15.20;10.80;;;;;;;9.43;80.11;101086.33;108107;1256;72355;-86
2023/04/16 04:14:42;;;;;;;15.10;10.70;;;;;;;9.42;80.16;101092.08;108081;1257;63224;-88
2023/04/16 04:17:10;;;;;;;12.90;10.60;;;;;;;9.42;80.27;101090.69;107972;1257;61247;-86
2023/04/16 04:19:39;;;;;;;16.50;11.20;;;;;;;9.44;80.19;101086.09;108139;1256;74594;-87
2023/04/16 04:22:22;;;;;;;13.30;11.00;;;;;;;9.46;80.29;101087.94;108116;1257;71406;-86
2023/04/16 04:24:52;;;;;;;14.70;10.60;;;;;;;9.47;80.29;101092.23;108050;1257;73589;-87
2023/04/16 04:27:21;;;;;;;12.90;10.50;;;;;;;9.49;80.32;101092.70;108360;1257;61558;-87
2023/04/16 04:29:49;;;;;;;12.80;10.00;;;;;;;9.51;80.34;101092.25;108082;1257;61174;-87
2023/04/16 04:32:18;;;;;;;15.80;11.10;;;;;;;9.53;80.35;101092.58;108079;1254;73808;-86
2023/04/16 04:34:48;;;;;;;17.70;11.30;;;;;;;9.52;80.35;101092.17;108216;1254;72933;-87
2023/04/16 04:37:17;;;;;;;16.60;10.90;;;;;;;9.52;80.42;101093.19;108264;1254;73410;-88
2023/04/16 04:39:45;;;;;;;14.50;10.40;;;;;;;9.54;80.51;101097.07;108034;1257;62565;-88
2023/04/16 04:42:18;;;;;;;14.90;10.90;;;;;;;9.58;80.44;101097.37;108515;1257;59423;-84
2023/04/16 04:44:46;;;;;;;13.20;10.80;;;;;;;9.58;80.44;101093.79;109300;1256;72854;-84
2023/04/16 04:47:15;;;;;;;12.90;10.70;;;;;;;9.63;80.49;101095.42;109283;1256;71509;-83
2023/04/16 04:49:43;;;;;;;16.10;11.20;;;;;;;9.69;80.47;101094.95;109310;1257;70731;-84
2023/04/16 04:52:13;;;;;;;16.20;11.60;;;;;;;9.74;80.60;101096.41;108906;1257;61965;-81
2023/04/16 04:54:42;;;;;;;14.40;10.20;;;;;;;9.78;80.46;101099.66;108931;1256;60225;-88
2023/04/16 04:57:12;;;;;;;13.20;9.70;;;;;;;9.84;80.45;101100.95;109064;1256;74699;-88
2023/04/16 04:59:40;;;;;;;13.30;10.50;;;;;;;9.88;80.39;101100.91;109256;1257;71264;-77
2023/04/16 05:02:10;;;;;;;13.50;10.10;;;;;;;9.92;80.38;101102.58;108997;1255;71678;-87
2023/04/16 05:04:39;;;;;;;17.80;12.00;;;;;;;9.95;80.35;101099.77;108659;1256;61257;-88
2023/04/16 05:07:07;;;;;;;14.30;10.40;;;;;;;10.04;80.40;101103.55;108884;1256;59413;-88
2023/04/16 05:09:36;;;;;;;14.20;10.60;;;;;;;10.13;80.38;101106.11;108680;1256;74097;-88
2023/04/16 05:12:04;;;;;;;18.00;11.70;;;;;;;10.17;80.18;101103.98;108360;1254;73810;-85
2023/04/16 05:14:33;;;;;;;13.20;9.90;;;;;;;10.21;80.01;101101.70;107971;1260;73915;-86
2023/04/16 05:17:03;;;;;;;14.70;10.30;;;;;;;10.26;80.03;101101.97;108139;1254;62085;-87
2023/04/16 05:19:32;;;;;;;13.80;10.40;;;;;;;10.31;79.81;101107.68;108155;1254;61400;-87
2023/04/16 05:22:01;;;;;;;12.80;8.70;;;;;;;10.32;79.63;101108.86;108208;1256;75042;-86
2023/04/16 05:24:30;;;;;;;12.10;9.80;;;;;;;10.36;79.57;101111.44;108728;1256;74052;-88
2023/04/16 05:26:58;;;;;;;14.40;9.20;;;;;;;10.40;79.53;101111.46;108120;1256;71509;-86
2023/04/16 05:29:28;;;;;;;13.20;9.90;;;;;;;10.42;79.24;101112.93;108069;1254;62908;-87
2023/04/16 05:31:57;;;;;;;12.30;10.10;;;;;;;10.38;79.09;101111.75;108040;1254;61827;-89
2023/04/16 05:34:25;;;;;;;11.30;8.80;;;;;;;10.34;78.92;101113.98;108143;1254;74276;-86
2023/04/16 05:36:54;;;;;;;11.80;9.30;;;;;;;10.30;78.84;101114.77;108140;1254;72456;-89
2023/04/16 05:39:22;;;;;;;14.20;9.00;;;;;;;10.29;78.77;101114.67;108192;1257;71803;-86
2023/04/16 05:41:51;;;;;;;12.50;10.20;;;;;;;10.30;78.74;101115.63;108107;1258;61711;-87
2023/04/16 05:44:20;;;;;;;13.70;10.10;;;;;;;10.33;78.72;101115.48;108080;1254;61262;-89
2023/04/16 05:46:48;;;;;;;14.50;9.80;;;;;;;10.37;78.77;101118.56;108076;1254;75624;-90
2023/04/16 05:49:20;;;;;;;12.20;9.20;;;;;;;10.41;78.57;101122.69;108018;1256;73748;-83
2023/04/16 05:51:48;;;;;;;12.60;9.20;;;;;;;10.43;78.47;101118.70;107978;1257;73645;-85
2023/04/16 05:54:18;;;;;;;12.50;8.80;;;;;;;10.46;78.42;101120.33;107986;1256;63233;-85
2023/04/16 05:56:46;;;;;;;12.60;9.60;;;;;;;10.48;78.31;101123.30;108006;1256;61243;-87
2023/04/16 05:59:15;;;;;;;12.20;9.20;;;;;;;10.52;78.32;101123.04;107982;1256;73472;-88
2023/04/16 06:01:44;;;;;;;14.60;9.50;;;;;;;10.55;78.04;101123.55;107979;1256;71908;-88
2023/04/16 06:04:12;;;;;;;13.50;10.00;;;;;;;10.53;78.01;101126.73;108032;1257;72326;-87
2023/04/16 06:06:41;;;;;;;11.70;8.30;;;;;;;10.50;77.92;101131.08;107995;1257;61928;-85
2023/04/16 06:09:12;;;;;;;13.10;9.20;;;;;;;10.47;77.73;101135.50;107942;1257;61247;-88
2023/04/16 06:11:41;;;;;;;13.00;9.80;;;;;;;10.43;77.64;101144.25;108004;1257;75621;-87
2023/04/16 06:14:09;;;;;;;12.60;9.10;;;;;;;10.44;77.76;101142.47;108689;1256;72043;-87
2023/04/16 06:16:38;;;;;;;16.70;9.90;;;;;;;10.52;77.85;101143.23;109204;1256;71460;-83
2023/04/16 06:19:06;;;;;;;12.40;9.30;;;;;;;10.58;77.77;101141.66;109201;1256;61158;-83
2023/04/16 06:21:36;;;;;;;11.30;8.40;;;;;;;10.62;77.65;101145.52;108108;1256;61051;-88
2023/04/16 06:24:05;;;;;;;16.30;10.10;;;;;;;10.65;77.66;101150.65;107725;1256;75636;-87
2023/04/16 06:26:34;;;;;;;14.90;9.60;;;;;;;10.70;77.52;101155.21;107845;1257;73427;-87
2023/04/16 06:29:02;;;;;;;14.60;9.80;;;;;;;10.70;77.39;101154.37;107867;1256;71773;-88
2023/04/16 06:31:31;;;;;;;16.00;10.50;;;;;;;10.68;77.16;101160.20;108009;1256;60407;-88
2023/04/16 06:34:00;;;;;;;13.00;9.10;;;;;;;10.68;77.10;101163.04;108043;1254;61251;-88
2023/04/16 06:36:28;;;;;;;15.70;9.90;;;;;;;10.70;77.06;101163.71;108127;1254;73817;-87
2023/04/16 06:38:57;;;;;;;13.00;10.00;;;;;;;10.72;76.90;101166.20;108095;1256;71866;-88
2023/04/16 06:41:26;;;;;;;15.80;10.30;;;;;;;10.76;76.96;101170.92;108065;1255;71378;-88
2023/04/16 06:43:54;;;;;;;15.30;10.30;;;;;;;10.75;76.62;101173.15;108106;1257;61124;-87
2023/04/16 06:46:22;;;;;;;16.60;10.80;;;;;;;10.68;76.30;101174.73;107953;1257;61217;-87
2023/04/16 06:48:51;;;;;;;17.10;11.20;;;;;;;10.64;76.52;101174.84;107950;1257;73330;-87
2023/04/16 06:51:21;;;;;;;17.10;12.00;;;;;;;10.67;76.59;101175.70;107790;1257;70891;-87
2023/04/16 06:53:50;;;;;;;16.90;11.30;;;;;;;10.74;76.60;101177.09;108052;1254;73130;-87
2023/04/16 06:56:18;;;;;;;18.60;11.40;;;;;;;10.77;76.57;101178.90;108168;1256;61219;-87
2023/04/16 06:58:47;;;;;;;18.40;11.80;;;;;;;10.77;76.33;101177.61;108391;1257;61259;-87
2023/04/16 07:01:16;;;;;;;16.70;11.50;;;;;;;10.75;76.19;101180.52;108134;1255;74337;-87
2023/04/16 07:03:45;;;;;;;17.90;12.30;;;;;;;10.78;76.13;101180.09;108193;1257;73406;-87
2023/04/16 07:06:15;;;;;;;15.60;10.80;;;;;;;10.78;76.20;101183.25;108284;1257;71705;-86
2023/04/16 07:08:44;;;;;;;17.20;11.60;;;;;;;10.83;76.12;101187.17;108128;1255;61077;-86
2023/04/16 07:11:13;;;;;;;17.50;11.80;;;;;;;10.85;76.06;101188.15;108094;1254;61251;-86
2023/04/16 07:13:41;;;;;;;19.60;12.20;;;;;;;10.90;76.06;101188.67;108089;1254;74978;-87
2023/04/16 07:16:09;;;;;;;19.10;11.70;;;;;;;10.98;76.00;101185.69;108078;1254;73243;-86
2023/04/16 07:18:38;;;;;;;16.00;10.60;;;;;;;11.05;75.94;101188.69;108015;1254;72936;-88
2023/04/16 07:21:06;;;;;;;18.10;11.60;;;;;;;11.02;75.64;101184.63;107938;1254;62513;-86
2023/04/16 07:23:35;;;;;;;17.30;11.50;;;;;;;10.93;75.32;101187.81;108070;1254;61230;-88
2023/04/16 07:26:03;;;;;;;18.10;11.70;;;;;;;10.87;75.37;101188.63;108023;1254;75915;-88
2023/04/16 07:28:32;;;;;;;15.50;12.00;;;;;;;10.83;75.30;101182.48;108019;1256;72361;-87
2023/04/16 07:31:01;;;;;;;22.50;13.50;;;;;;;10.82;75.41;101186.66;107983;1256;71413;-86
2023/04/16 07:33:29;;;;;;;20.30;13.70;;;;;;;10.81;75.40;101186.45;108008;1256;63109;-87
2023/04/16 07:36:01;;;;;;;19.80;13.10;;;;;;;10.84;75.35;101185.58;108083;1256;61279;-88
2023/04/16 07:38:30;;;;;;;;;;;;;;;10.90;75.29;101186.70;108048;1257;73387;-88
2023/04/16 07:40:58;;;;;;;17.30;12.00;;;;;;;10.98;75.41;101189.42;108101;1257;73778;-87
2023/04/16 07:43:27;;;;;;;21.10;12.80;;;;;;;11.04;75.29;101187.66;108562;1256;70776;-87
2023/04/16 07:45:59;;;;;;;17.80;11.70;;;;;;;11.07;75.18;101189.73;109297;1255;61734;-82
2023/04/16 07:48:27;;;;;;;;;;;;;;;11.10;75.07;101194.70;109266;1255;59929;-87
2023/04/16 07:50:55;;;;;;;20.70;13.10;;;;;;;11.06;74.82;101192.61;108389;1257;74685;-86
2023/04/16 07:53:24;;;;;;;16.90;12.00;;;;;;;11.04;74.94;101194.61;107737;1256;72654;-87
2023/04/16 07:55:52;;;;;;;19.50;13.60;;;;;;;11.03;74.97;101192.57;108023;1256;70797;-86
2023/04/16 07:58:20;;;;;;;20.90;14.00;;;;;;;11.01;74.75;101191.72;108061;1254;61013;-86
2023/04/16 08:00:52;;;;;;;19.70;13.50;;;;;;;11.00;74.74;101193.56;108141;1254;59841;-87
2023/04/16 08:03:21;;;;;;;20.90;13.80;;;;;;;10.98;74.67;101193.44;108071;1254;75668;-89
2023/04/16 08:05:50;;;;;;;20.60;13.20;;;;;;;10.97;74.67;101193.59;108061;1256;73416;-87
2023/04/16 08:08:18;;;;;;;19.80;13.50;;;;;;;10.97;74.69;101195.25;108049;1256;73905;-88
2023/04/16 08:10:48;;;;;;;21.20;13.40;;;;;;;11.00;74.66;101195.50;108412;1257;62218;-88
2023/04/16 08:13:19;;;;;;;;;;;;;;;11.06;74.73;101194.59;108017;1257;61433;-88
2023/04/16 08:15:47;;;;;;;20.30;13.60;;;;;;;11.15;74.84;101195.84;107955;1256;75680;-87
2023/04/16 08:18:16;;;;;;;22.00;13.90;;;;;;;11.23;74.73;101191.45;108137;1256;73635;-87
2023/04/16 08:20:46;;;;;;;24.00;15.30;;;;;;;11.28;74.62;101194.38;108011;1256;72875;-89
2023/04/16 08:23:15;;;;;;;21.10;13.40;;;;;;;11.34;74.42;101190.60;107784;1256;62628;-88
2023/04/16 08:25:46;;;;;;;20.70;15.30;;;;;;;11.41;74.35;101193.05;107921;1257;61160;-87
2023/04/16 08:28:17;;;;;;;22.60;13.80;;;;;;;11.49;74.15;101191.72;108192;1254;74973;-88
2023/04/16 08:30:46;;;;;;;19.60;14.40;;;;;;;11.50;73.64;101193.11;108215;1254;73110;-88
2023/04/16 08:33:15;;;;;;;21.00;13.40;;;;;;;11.46;73.60;101193.45;108164;1258;73542;-86
2023/04/16 08:35:44;;;;;;;21.50;13.70;;;;;;;11.45;73.48;101194.88;108178;1254;61125;-87
2023/04/16 08:38:15;;;;;;;23.60;15.00;;;;;;;11.42;73.36;101197.88;108136;1257;61135;-88
2023/04/16 08:40:45;;;;;;;21.00;13.60;;;;;;;11.41;73.26;101196.54;107947;1261;75718;-87
2023/04/16 08:43:17;;;;;;;19.30;12.70;;;;;;;11.43;73.32;101195.70;107774;1257;72456;-87
2023/04/16 08:45:46;;;;;;;22.60;14.50;;;;;;;11.45;73.17;101197.92;108051;1256;71369;-86
2023/04/16 08:48:14;;;;;;;22.60;14.40;;;;;;;11.42;72.95;101196.98;108105;1255;61564;-87
2023/04/16 08:50:43;;;;;;;22.40;14.40;;;;;;;11.35;72.73;101195.86;107997;1257;61231;-86
2023/04/16 08:53:16;;;;;;;23.20;15.60;;;;;;;11.29;72.74;101190.73;107923;1257;75602;-88
2023/04/16 08:55:49;;;;;;;20.70;14.00;;;;;;;11.23;72.64;101192.48;108142;1256;71843;-85
2023/04/16 08:58:20;;;;;;;23.80;15.00;;;;;;;11.20;72.87;101192.33;107951;1256;73255;-87
2023/04/16 09:00:48;;;;;;;21.80;14.20;;;;;;;11.16;72.79;101191.56;108119;1257;63186;-87
2023/04/16 09:03:18;;;;;;;19.80;13.30;;;;;;;11.17;73.04;101193.52;108134;1257;60961;-84
2023/04/16 09:05:48;;;;;;;23.50;14.30;;;;;;;11.21;73.18;101193.62;107821;1256;73731;-85
2023/04/16 09:08:20;;;;;;;20.60;14.20;;;;;;;11.29;73.29;101194.65;108212;1257;71092;-86
2023/04/16 09:10:48;;;;;;;22.30;14.30;;;;;;;11.36;73.17;101194.95;108101;1257;73207;-86
2023/04/16 09:13:19;;;;;;;22.80;13.90;;;;;;;11.46;73.25;101196.02;108592;1256;63061;-86
2023/04/16 09:15:55;;;;;;;21.30;15.00;;;;;;;11.56;72.92;101192.08;109236;1256;59093;-85
2023/04/16 09:18:24;;;;;;;27.10;15.90;;;;;;;11.53;72.34;101196.05;109282;1256;73384;-88
2023/04/16 09:20:55;;;;;;;21.30;14.50;;;;;;;11.47;72.15;101201.27;108092;1256;72893;-88
2023/04/16 09:23:24;;;;;;;22.60;15.20;;;;;;;11.46;72.18;101203.40;107933;1257;73378;-87
2023/04/16 09:25:52;;;;;;;25.00;15.40;;;;;;;11.43;71.97;101206.66;108108;1255;62480;-87
2023/04/16 09:28:44;;;;;;;24.00;16.20;;;;;;;11.35;71.93;101210.83;107950;1256;61535;-86
2023/04/16 09:31:13;;;;;;;25.00;16.50;;;;;;;11.26;72.05;101208.73;108155;1257;73833;-84
2023/04/16 09:33:42;;;;;;;24.90;15.80;;;;;;;11.24;72.31;101211.31;108162;1257;73503;-86
2023/04/16 09:36:10;;;;;;;22.30;14.30;;;;;;;11.24;72.40;101211.10;108096;1256;72858;-87
2023/04/16 09:38:49;;;;;;;25.50;15.20;;;;;;;11.29;72.43;101211.45;108102;1255;62615;-85
2023/04/16 09:41:17;;;;;;;22.80;14.90;;;;;;;11.43;72.54;101216.36;108111;1259;60995;-85
2023/04/16 09:44:03;;;;;;;23.40;15.30;;;;;;;11.59;72.70;101215.45;108108;1257;74427;-86
2023/04/16 09:47:07;;;;;;;25.50;15.90;;;;;;;11.73;72.43;101216.64;108135;1257;73995;-85
2023/04/16 09:49:42;;;;;;;23.20;14.90;;;;;;;11.84;72.18;101218.52;107851;1257;73283;-87
2023/04/16 09:52:18;;;;;;;25.70;16.70;;;;;;;11.88;71.93;101223.40;107827;1257;62463;-86
2023/04/16 09:54:50;;;;;;;23.40;15.60;;;;;;;11.95;71.72;101224.48;108010;1257;61139;-86
2023/04/16 09:57:20;;;;;;;23.40;15.50;;;;;;;12.00;71.55;101226.59;108009;1257;75655;-85
2023/04/16 10:00:17;;;;;;;26.10;16.40;;;;;;;12.05;71.31;101226.33;108009;1256;71560;-85
2023/04/16 10:02:45;;;;;;;23.40;15.20;;;;;;;12.16;71.19;101227.10;107988;1257;72986;-87
2023/04/16 10:05:17;;;;;;;22.60;15.00;;;;;;;12.24;70.99;101232.05;107756;1257;63091;-87
2023/04/16 10:07:48;;;;;;;21.40;14.70;;;;;;;12.23;70.46;101231.08;107671;1257;61225;-86
2023/04/16 10:10:16;;;;;;;23.40;16.40;;;;;;;12.20;70.27;101230.23;107768;1257;74955;-84
2023/04/16 10:12:47;;;;;;;22.30;16.10;;;;;;;12.21;70.32;101229.89;107792;1257;73743;-87
2023/04/16 10:15:18;;;;;;;24.50;16.90;;;;;;;12.33;70.43;101233.60;108008;1260;73006;-86
2023/04/16 10:17:49;;;;;;;21.00;14.00;;;;;;;12.47;70.31;101241.72;107757;1256;61215;-87
2023/04/16 10:20:17;;;;;;;27.00;15.40;;;;;;;12.48;69.69;101244.31;108003;1256;61096;-86
2023/04/16 10:22:46;;;;;;;17.10;12.60;;;;;;;12.40;69.41;101246.42;108030;1256;75990;-85
2023/04/16 10:25:15;;;;;;;21.30;14.30;;;;;;;12.34;69.24;101247.81;107887;1256;74001;-87
2023/04/16 10:27:43;;;;;;;22.50;16.10;;;;;;;12.25;69.13;101247.44;107846;1256;72374;-85
2023/04/16 10:30:12;;;;;;;25.40;17.10;;;;;;;12.16;69.06;101248.27;108313;1257;61862;-87
2023/04/16 10:32:52;;;;;;;26.20;17.60;;;;;;;12.05;69.22;101250.10;108080;1256;61112;-87
2023/04/16 10:35:24;;;;;;;27.10;19.30;;;;;;;11.93;69.41;101245.99;108193;1257;74642;-88
2023/04/16 10:37:56;;;;;;;26.30;18.60;;;;;;;11.89;69.66;101248.89;107842;1257;73840;-89
2023/04/16 10:40:25;;;;;;;22.20;16.10;;;;;;;11.88;69.95;101247.39;108113;1256;72405;-86
2023/04/16 10:42:57;;;;;;;27.10;18.80;;;;;;;11.87;70.17;101245.66;108492;1257;62725;-84
2023/04/16 10:45:37;;;;;;;26.30;18.00;;;;;;;11.86;70.27;101244.35;109085;1257;59554;-85
2023/04/16 10:48:08;;;;;;;25.90;17.90;;;;;;;11.79;70.30;101243.15;108895;1257;73595;-86
2023/04/16 10:50:37;;;;;;;28.30;19.00;;;;;;;11.71;70.39;101246.43;108113;1257;71757;-86
2023/04/16 10:53:19;;;;;;;24.60;18.10;;;;;;;11.66;70.62;101245.40;107899;1257;70927;-86
2023/04/16 10:56:03;;;;;;;;;;;;;;;11.61;70.82;101246.98;108090;1255;61972;-86
2023/04/16 10:58:34;;;;;;;25.70;18.10;;;;;;;11.58;71.02;101246.36;108136;1256;61337;-87
2023/04/16 11:01:10;;;;;;;24.10;17.30;;;;;;;11.54;71.03;101251.55;108059;1255;74276;-87
2023/04/16 11:03:45;;;;;;;26.10;18.60;;;;;;;11.53;71.18;101251.86;107718;1257;72252;-87
2023/04/16 11:06:21;;;;;;;26.30;17.90;;;;;;;11.48;71.14;101256.56;108684;1256;70447;-85
2023/04/16 11:08:52;;;;;;;27.80;18.40;;;;;;;11.46;71.26;101257.06;109204;1256;60444;-86
2023/04/16 11:11:22;;;;;;;25.20;18.40;;;;;;;11.48;71.39;101254.63;108809;1256;61310;-85
2023/04/16 11:13:57;;;;;;;26.50;18.10;;;;;;;11.49;71.50;101260.15;109269;1256;74365;-82
2023/04/16 11:16:25;;;;;;;25.20;16.90;;;;;;;11.47;71.37;101260.23;109123;1257;70988;-87
2023/04/16 11:18:56;;;;;;;24.30;17.00;;;;;;;11.49;71.52;101262.52;108378;1254;71373;-86
2023/04/16 11:21:25;;;;;;;25.20;17.60;;;;;;;11.53;71.65;101261.55;108501;1256;61710;-85